createdAt,value
2018-10-16T00:03:27.003Z,23.27
2018-10-16T00:08:30.379Z,25.20
2018-10-16T00:13:33.910Z,23.93
2018-10-16T00:18:37.239Z,24.77
2018-10-16T00:23:40.572Z,21.23
2018-10-16T00:28:43.947Z,23.70
2018-10-16T00:33:47.749Z,24.30
2018-10-16T00:38:51.094Z,21.20
2018-10-16T00:43:54.615Z,23.00
2018-10-16T00:48:58.003Z,24.80
2018-10-16T00:54:01.717Z,21.07
2018-10-16T00:59:05.172Z,25.93
2018-10-16T01:04:08.973Z,21.30
2018-10-16T01:09:13.573Z,20.60
2018-10-16T01:14:17.043Z,22.47
2018-10-16T01:19:20.439Z,27.53
2018-10-16T01:24:23.912Z,23.60
2018-10-16T01:29:27.329Z,20.97
2018-10-16T01:34:30.743Z,19.60
2018-10-16T01:39:34.173Z,19.83
2018-10-16T01:44:37.504Z,24.23
2018-10-16T01:49:41.086Z,22.93
2018-10-16T01:54:44.580Z,23.53
2018-10-16T01:59:48.056Z,22.57
2018-10-16T02:04:51.509Z,23.70
2018-10-16T02:09:54.875Z,23.47
2018-10-16T02:14:58.192Z,23.60
2018-10-16T02:20:01.535Z,21.93
2018-10-16T02:25:05.380Z,22.83
2018-10-16T02:30:08.818Z,22.37
2018-10-16T02:35:12.168Z,20.97
2018-10-16T02:40:15.519Z,20.80
2018-10-16T02:45:18.851Z,25.60
2018-10-16T02:50:22.302Z,20.07
2018-10-16T02:55:25.707Z,20.87
2018-10-16T03:00:29.299Z,24.50
2018-10-16T03:05:32.609Z,23.67
2018-10-16T03:10:36.299Z,22.93
2018-10-16T03:15:39.784Z,22.80
2018-10-16T03:20:43.215Z,23.10
2018-10-16T03:25:46.636Z,24.00
2018-10-16T03:30:50.172Z,20.50
2018-10-16T03:35:58.095Z,21.73
2018-10-16T03:42:38.492Z,21.07
2018-10-16T03:47:41.972Z,22.23
2018-10-16T03:52:45.419Z,23.87
2018-10-16T03:57:48.828Z,21.90
2018-10-16T04:02:56.729Z,28.60
2018-10-16T04:08:00.209Z,22.27
2018-10-16T04:13:03.976Z,24.93
2018-10-16T04:18:07.380Z,24.87
2018-10-16T04:23:10.673Z,29.00
2018-10-16T04:28:14.118Z,23.43
2018-10-16T04:33:17.490Z,25.87
2018-10-16T04:38:20.822Z,29.27
2018-10-16T04:43:24.240Z,27.50
2018-10-16T04:48:27.554Z,26.57
2018-10-16T04:53:30.880Z,25.07
2018-10-16T04:58:34.186Z,32.70
2018-10-16T05:03:38.007Z,25.63
2018-10-16T05:08:41.347Z,28.97
2018-10-16T05:13:44.648Z,27.93
2018-10-16T05:18:48.010Z,26.50
2018-10-16T05:23:52.369Z,36.67
2018-10-16T05:28:55.723Z,23.50
2018-10-16T05:33:59.099Z,31.90
2018-10-16T05:39:03.381Z,29.73
2018-10-16T05:44:06.884Z,28.33
2018-10-16T05:49:10.303Z,32.10
2018-10-16T05:54:13.864Z,31.57
2018-10-16T05:59:17.275Z,29.10
2018-10-16T06:04:20.663Z,34.83
2018-10-16T06:09:24.023Z,33.10
2018-10-16T06:14:32.025Z,34.70
2018-10-16T06:19:35.460Z,45.73
2018-10-16T06:24:38.844Z,35.87
2018-10-16T06:29:42.221Z,43.23
2018-10-16T06:34:45.852Z,38.50
2018-10-16T06:39:49.171Z,33.20
2018-10-16T06:44:52.556Z,34.33
2018-10-16T06:49:55.946Z,32.17
2018-10-16T06:54:59.313Z,35.63
2018-10-16T07:00:02.726Z,33.83
2018-10-16T07:05:07.740Z,36.90
2018-10-16T07:10:11.057Z,30.07
2018-10-16T07:15:14.424Z,31.37
2018-10-16T07:20:17.712Z,32.13
2018-10-16T07:25:21.288Z,30.23
2018-10-16T07:30:24.866Z,34.47
2018-10-16T07:35:28.400Z,33.97
2018-10-16T07:40:31.916Z,36.30
2018-10-16T07:45:35.319Z,37.37
2018-10-16T07:50:38.763Z,33.93
2018-10-16T07:55:42.106Z,39.80
2018-10-16T08:00:45.911Z,36.67
2018-10-16T08:05:55.864Z,33.43
2018-10-16T08:10:59.229Z,38.87
2018-10-16T08:16:02.572Z,37.00
2018-10-16T08:21:06.465Z,36.30
2018-10-16T08:26:09.839Z,37.73
2018-10-16T08:31:13.249Z,47.93
2018-10-16T08:36:16.677Z,37.10
2018-10-16T08:41:26.976Z,39.10
2018-10-16T08:46:47.380Z,35.10
2018-10-16T08:51:52.259Z,32.63
2018-10-16T08:56:55.575Z,28.27
2018-10-16T09:01:58.948Z,30.43
2018-10-16T09:07:02.517Z,27.37
2018-10-16T09:12:06.093Z,31.60
2018-10-16T09:17:09.432Z,29.03
2018-10-16T09:22:13.123Z,26.97
2018-10-16T09:27:16.642Z,29.23
2018-10-16T09:32:20.623Z,24.27
2018-10-16T09:37:24.074Z,22.13
2018-10-16T09:42:28.119Z,26.60
2018-10-16T09:47:31.626Z,23.83
2018-10-16T09:52:35.179Z,25.13
2018-10-16T09:57:38.605Z,22.27
2018-10-16T10:02:42.135Z,29.77
2018-10-16T10:07:45.665Z,26.37
2018-10-16T10:12:49.421Z,27.58
2018-10-16T10:17:52.979Z,33.40
2018-10-16T10:22:56.359Z,31.20
2018-10-16T10:28:00.049Z,27.70
2018-10-16T10:33:04.002Z,22.37
2018-10-16T10:38:08.819Z,27.87
2018-10-16T10:43:12.511Z,28.07
2018-10-16T10:48:15.891Z,25.97
2018-10-16T10:53:19.493Z,24.07
2018-10-16T10:58:30.263Z,29.30
2018-10-16T11:03:38.469Z,31.10
2018-10-16T11:08:43.918Z,28.33
2018-10-16T11:13:48.360Z,33.57
2018-10-16T11:18:51.779Z,24.00
2018-10-16T11:23:55.169Z,21.03
2018-10-16T11:28:58.532Z,23.93
2018-10-16T11:34:01.888Z,24.70
2018-10-16T11:39:09.247Z,26.57
2018-10-16T11:44:13.076Z,25.90
2018-10-16T11:49:16.654Z,24.83
2018-10-16T11:54:20.109Z,27.03
2018-10-16T11:59:24.414Z,28.00
2018-10-16T12:04:27.791Z,26.07
2018-10-16T12:09:31.160Z,28.47
2018-10-16T12:14:34.526Z,27.23
2018-10-16T12:19:44.273Z,32.07
2018-10-16T12:24:47.712Z,30.60
2018-10-16T12:29:51.403Z,28.33
2018-10-16T12:34:54.757Z,30.40
2018-10-16T12:39:58.341Z,29.97
2018-10-16T12:45:01.955Z,33.87
2018-10-16T12:50:06.239Z,28.37
2018-10-16T12:55:09.863Z,30.23
2018-10-16T13:00:13.873Z,31.17
2018-10-16T13:05:17.239Z,27.73
2018-10-16T13:10:20.671Z,30.00
2018-10-16T13:15:24.242Z,27.13
2018-10-16T13:20:27.619Z,28.80
2018-10-16T13:25:31.412Z,28.97
2018-10-16T13:30:35.181Z,23.97
2018-10-16T13:35:38.889Z,27.73
2018-10-16T13:40:42.405Z,25.47
2018-10-16T13:45:46.176Z,26.07
2018-10-16T13:50:49.626Z,28.17
2018-10-16T13:55:53.050Z,33.28
2018-10-16T14:00:56.751Z,26.63
2018-10-16T14:06:01.666Z,30.90
2018-10-16T14:11:05.544Z,32.10
2018-10-16T14:16:09.034Z,32.97
2018-10-16T14:21:12.408Z,29.80
2018-10-16T14:26:15.979Z,32.10
2018-10-16T14:31:19.548Z,39.23
2018-10-16T14:36:22.962Z,32.77
2018-10-16T14:41:26.618Z,33.20
2018-10-16T14:46:30.171Z,35.07
2018-10-16T14:51:34.641Z,32.10
2018-10-16T14:56:38.266Z,30.13
2018-10-16T15:01:41.785Z,34.17
2018-10-16T15:06:45.156Z,37.60
2018-10-16T15:11:48.570Z,40.00
2018-10-16T15:16:52.131Z,32.63
2018-10-16T15:21:55.472Z,35.60
2018-10-16T15:26:59.710Z,37.83
2018-10-16T15:32:03.120Z,36.13
2018-10-16T15:37:06.978Z,37.30
2018-10-16T15:42:10.563Z,35.77
2018-10-16T15:47:13.894Z,35.07
2018-10-16T15:52:17.276Z,36.07
2018-10-16T15:57:20.607Z,44.20
2018-10-16T16:02:24.345Z,38.80
2018-10-16T16:07:27.732Z,37.97
2018-10-16T16:12:31.218Z,39.73
2018-10-16T16:17:34.563Z,36.70
2018-10-16T16:22:38.044Z,33.37
2018-10-16T16:27:41.419Z,39.10
2018-10-16T16:32:44.947Z,36.77
2018-10-16T16:37:48.339Z,35.27
2018-10-16T16:42:51.659Z,39.43
2018-10-16T16:47:55.045Z,39.07
2018-10-16T16:52:58.787Z,42.00
2018-10-16T16:58:02.357Z,42.00
2018-10-16T17:03:06.055Z,42.27
2018-10-16T17:08:09.628Z,40.70
2018-10-16T17:13:13.045Z,39.50
2018-10-16T17:18:16.511Z,40.08
2018-10-16T17:23:19.940Z,43.50
2018-10-16T17:28:23.444Z,40.80
2018-10-16T17:33:26.881Z,40.53
2018-10-16T17:38:30.295Z,36.00
2018-10-16T17:43:33.658Z,40.33
2018-10-16T17:48:37.184Z,39.03
2018-10-16T17:53:40.592Z,45.73
2018-10-16T17:58:43.924Z,40.50
2018-10-16T18:03:47.479Z,42.40
2018-10-16T18:08:50.888Z,40.33
2018-10-16T18:13:54.213Z,42.47
2018-10-16T18:18:57.596Z,37.30
2018-10-16T18:24:01.036Z,35.57
2018-10-16T18:29:04.481Z,41.63
2018-10-16T18:34:08.028Z,40.07
2018-10-16T18:39:11.435Z,37.23
2018-10-16T18:44:14.916Z,41.43
2018-10-16T18:49:18.354Z,42.47
2018-10-16T18:54:21.805Z,43.67
2018-10-16T18:59:25.130Z,40.93
2018-10-16T19:04:28.578Z,44.00
2018-10-16T19:09:31.905Z,42.73
2018-10-16T19:14:35.361Z,39.73
2018-10-16T19:19:38.842Z,46.53
2018-10-16T19:24:42.377Z,46.37
2018-10-16T19:29:45.676Z,50.00
2018-10-16T19:34:48.998Z,40.17
2018-10-16T19:39:52.468Z,43.73
2018-10-16T19:44:56.214Z,43.57
2018-10-16T19:49:59.684Z,46.07
2018-10-16T19:55:03.327Z,41.10
2018-10-16T20:00:08.354Z,47.83
2018-10-16T20:05:11.944Z,41.00
2018-10-16T20:10:15.375Z,45.20
2018-10-16T20:15:18.720Z,47.67
2018-10-16T20:20:22.402Z,44.73
2018-10-16T20:25:27.059Z,49.03
2018-10-16T20:30:30.799Z,53.13
2018-10-16T20:35:34.287Z,52.70
2018-10-16T20:40:37.632Z,53.77
2018-10-16T20:45:41.752Z,53.13
2018-10-16T20:50:45.176Z,49.73
2018-10-16T20:55:48.539Z,55.93
2018-10-16T21:00:52.986Z,55.27
2018-10-16T21:05:56.505Z,55.93
2018-10-16T21:10:59.899Z,58.23
2018-10-16T21:16:03.244Z,58.87
2018-10-16T21:21:07.158Z,57.40
2018-10-16T21:26:10.551Z,66.13
2018-10-16T21:31:14.053Z,59.37
2018-10-16T21:36:17.527Z,64.20
2018-10-16T21:41:21.180Z,59.77
2018-10-16T21:46:24.561Z,51.77
2018-10-16T21:51:29.122Z,55.97
2018-10-16T21:56:33.141Z,58.03
2018-10-16T22:01:42.451Z,59.57
2018-10-16T22:06:45.815Z,57.70
2018-10-16T22:11:49.317Z,58.40
2018-10-16T22:16:52.841Z,50.77
2018-10-16T22:21:56.206Z,50.50
2018-10-16T22:57:16.374Z,55.87
2018-10-16T23:02:20.023Z,55.37
2018-10-16T23:07:23.396Z,54.20
2018-10-16T23:12:26.969Z,53.00
2018-10-16T23:17:30.367Z,53.03
2018-10-16T23:22:33.812Z,58.13
2018-10-16T23:27:37.144Z,59.40
2018-10-16T23:32:40.476Z,58.83
2018-10-16T23:37:43.826Z,57.37
2018-10-16T23:42:47.461Z,54.07
2018-10-16T23:47:50.839Z,52.73
2018-10-16T23:52:58.850Z,56.50
2018-10-16T23:58:02.136Z,56.07
